Time;durP1;ratioP1;P1;durP2;ratioP2;P2;SDS_P1;SDS_P2;PMS_P1;PMS_P2;Temp;Humidity;BMP_temperature;BMP_pressure;BME280_temperature;BME280_humidity;BME280_pressure;Samples;Min_cycle;Max_cycle;Signal;HPM_P1;HPM_P2
2023/05/15 00:04:52;;;;;;;6.70;5.10;;;;;;;14.36;50.13;99116.42;436784;1253;139508;-68
2023/05/15 00:14:58;;;;;;;4.80;3.10;;;;;;;14.24;50.98;99124.08;437109;1253;138424;-67
2023/05/15 00:25:04;;;;;;;3.70;3.40;;;;;;;14.07;51.94;99100.56;436685;1253;139569;-66
2023/05/15 00:35:10;;;;;;;4.80;3.80;;;;;;;13.91;52.69;99066.98;436559;1253;139862;-66
2023/05/15 00:45:16;;;;;;;3.80;3.40;;;;;;;13.77;53.36;99048.13;436975;1253;138722;-68
2023/05/15 00:55:22;;;;;;;5.80;3.50;;;;;;;13.66;54.17;99026.18;436970;1253;138097;-67
2023/05/15 01:05:29;;;;;;;6.60;3.50;;;;;;;13.59;54.97;99023.59;436610;1253;139395;-66
2023/05/15 01:15:35;;;;;;;7.50;3.80;;;;;;;13.51;55.57;99024.63;436745;1253;138285;-66
2023/05/15 01:26:26;;;;;;;4.00;3.50;;;;;;;13.42;56.32;99006.33;436693;1255;138656;-67
2023/05/15 01:36:38;;;;;;;4.40;4.00;;;;;;;13.39;56.99;98999.24;436938;1253;139303;-67
2023/05/15 01:46:49;;;;;;;7.10;4.40;;;;;;;13.36;57.86;98985.59;436651;1251;139273;-68
2023/05/15 01:56:57;;;;;;;4.10;3.50;;;;;;;13.32;58.54;98973.30;436395;1253;138176;-66
2023/05/15 02:07:05;;;;;;;5.40;4.80;;;;;;;13.27;59.39;98959.13;436550;1254;139729;-68
2023/05/15 02:17:11;;;;;;;5.50;3.60;;;;;;;13.21;60.09;98939.24;436276;1253;138786;-67
2023/05/15 02:27:25;;;;;;;6.40;4.30;;;;;;;13.14;60.92;98923.27;436389;1254;138754;-67
2023/05/15 02:37:34;;;;;;;4.20;3.30;;;;;;;13.12;61.80;98896.61;436596;1251;139747;-66
2023/05/15 02:47:42;;;;;;;3.90;3.40;;;;;;;13.09;62.32;98868.59;436428;1253;139337;-67
2023/05/15 02:57:48;;;;;;;3.00;2.80;;;;;;;13.05;63.07;98863.80;436645;1254;139402;-68
2023/05/15 03:07:53;;;;;;;6.00;3.60;;;;;;;13.00;63.73;98849.15;436434;1251;138686;-68
2023/05/15 03:17:59;;;;;;;5.30;3.10;;;;;;;12.94;64.52;98836.27;436536;1253;139695;-67
2023/05/15 03:28:05;;;;;;;2.80;2.40;;;;;;;12.88;65.48;98823.56;436721;1252;139304;-67
2023/05/15 03:38:11;;;;;;;2.80;2.60;;;;;;;12.87;66.83;98811.07;436655;1251;138694;-68
2023/05/15 03:48:17;;;;;;;3.50;2.70;;;;;;;12.76;68.42;98803.70;436270;1251;139046;-67
2023/05/15 03:58:22;;;;;;;2.70;2.50;;;;;;;12.61;69.81;98802.33;436446;1252;139751;-67
2023/05/15 04:08:28;;;;;;;3.40;2.30;;;;;;;12.49;70.92;98793.20;436507;1253;138408;-67
2023/05/15 04:18:34;;;;;;;3.20;2.80;;;;;;;12.34;72.44;98794.75;436301;1251;139639;-67
2023/05/15 04:28:40;;;;;;;3.20;2.70;;;;;;;12.22;73.02;98792.98;436264;1251;140543;-67
2023/05/15 04:39:01;;;;;;;5.20;3.50;;;;;;;12.16;74.88;98774.51;436741;1251;138992;-69
2023/05/15 04:49:06;;;;;;;4.60;3.30;;;;;;;12.14;75.20;98759.38;437287;1251;139177;-68
2023/05/15 04:59:12;;;;;;;5.10;4.00;;;;;;;12.07;76.85;98758.91;436876;1253;139095;-69
2023/05/15 05:09:20;;;;;;;4.30;3.50;;;;;;;11.99;76.99;98754.31;436459;1253;138752;-68
2023/05/15 05:19:26;;;;;;;3.90;3.60;;;;;;;12.01;78.52;98750.49;436666;1253;139957;-68
2023/05/15 05:29:32;;;;;;;5.50;5.00;;;;;;;11.84;79.69;98755.72;436855;1253;138667;-69
2023/05/15 05:39:38;;;;;;;8.00;5.80;;;;;;;11.52;79.87;98739.86;436267;1251;139375;-68
2023/05/15 05:49:46;;;;;;;7.10;6.50;;;;;;;11.29;81.19;98720.90;436279;1253;138640;-68
2023/05/15 05:59:52;;;;;;;7.10;6.00;;;;;;;11.20;82.94;98712.53;436849;1251;139550;-68
2023/05/15 06:09:58;;;;;;;6.70;6.10;;;;;;;11.15;83.59;98711.73;436846;1251;139013;-67
2023/05/15 06:20:06;;;;;;;8.10;6.40;;;;;;;11.21;84.39;98691.04;437058;1249;138528;-66
2023/05/15 06:30:14;;;;;;;7.90;5.40;;;;;;;11.40;85.06;98670.09;436787;1253;138932;-68
2023/05/15 06:40:21;;;;;;;8.20;5.30;;;;;;;11.63;85.04;98651.02;437253;1250;139540;-67
2023/05/15 06:50:27;;;;;;;7.60;5.50;;;;;;;11.83;84.94;98648.48;436869;1251;139098;-67
2023/05/15 07:00:32;;;;;;;6.70;6.10;;;;;;;11.83;85.13;98652.31;436478;1251;138549;-67
2023/05/15 07:10:38;;;;;;;7.60;6.90;;;;;;;11.85;84.77;98644.69;436605;1253;139021;-67
2023/05/15 07:20:44;;;;;;;6.70;6.10;;;;;;;12.13;84.88;98616.30;436903;1250;156054;-68
2023/05/15 07:30:51;;;;;;;6.60;5.90;;;;;;;12.57;83.63;98604.30;436866;1253;138540;-67
2023/05/15 07:40:57;;;;;;;6.50;5.40;;;;;;;12.75;83.49;98596.61;436650;1250;138598;-67
2023/05/15 07:51:03;;;;;;;7.50;6.80;;;;;;;12.82;82.59;98589.34;436850;1253;138456;-67
2023/05/15 08:01:09;;;;;;;6.60;5.90;;;;;;;12.57;82.73;98593.42;436926;1251;139010;-68
2023/05/15 08:11:15;;;;;;;572.30;106.70;;;;;;;12.41;83.91;98584.80;439118;1250;139469;-66
2023/05/15 08:21:21;;;;;;;6.70;6.10;;;;;;;12.68;83.68;98580.52;436878;1249;140924;-66
2023/05/15 08:31:26;;;;;;;8.70;6.70;;;;;;;12.50;83.56;98568.73;437260;1249;138710;-66
2023/05/15 08:41:37;;;;;;;7.80;6.10;;;;;;;12.37;84.37;98567.67;436964;1251;140067;-67
2023/05/15 08:51:47;;;;;;;7.30;6.60;;;;;;;12.25;84.82;98563.41;437725;1252;138841;-68
2023/05/15 09:01:53;;;;;;;30.80;11.10;;;;;;;12.22;86.11;98561.91;437741;1253;138522;-63
2023/05/15 09:12:01;;;;;;;9.10;7.70;;;;;;;12.47;87.42;98554.83;437056;1251;139788;-66
2023/05/15 09:22:21;;;;;;;9.20;7.60;;;;;;;12.60;86.67;98555.59;437200;1248;138956;-63
2023/05/15 09:32:28;;;;;;;8.50;7.70;;;;;;;12.67;86.22;98547.81;437014;1253;138713;-65
2023/05/15 09:42:35;;;;;;;8.20;7.50;;;;;;;12.55;86.15;98547.98;437011;1251;140170;-63
2023/05/15 09:52:41;;;;;;;9.60;8.60;;;;;;;12.54;86.62;98535.80;438035;1249;138857;-64
2023/05/15 10:02:48;;;;;;;9.90;8.90;;;;;;;12.59;86.58;98535.48;437181;1252;138969;-63
2023/05/15 10:12:57;;;;;;;9.20;8.10;;;;;;;12.55;86.92;98536.90;436861;1253;138388;-64
2023/05/15 10:23:05;;;;;;;8.20;7.40;;;;;;;12.64;87.20;98542.48;437448;1248;139992;-64
2023/05/15 10:33:13;;;;;;;10.00;9.00;;;;;;;12.80;87.38;98544.04;436856;1249;138778;-63
2023/05/15 10:43:22;;;;;;;10.30;9.30;;;;;;;12.93;87.75;98538.27;437420;1251;139414;-64
2023/05/15 10:53:28;;;;;;;9.80;8.90;;;;;;;12.99;88.47;98534.69;437008;1253;139485;-64
2023/05/15 11:03:41;;;;;;;8.80;7.90;;;;;;;13.05;89.34;98541.73;437567;1252;139204;-63
2023/05/15 11:14:23;;;;;;;11.60;8.70;;;;;;;13.06;90.45;98535.67;436147;1251;138978;-63
2023/05/15 11:24:46;;;;;;;7.60;7.00;;;;;;;13.23;91.65;98525.70;435973;1250;139045;-65
2023/05/15 11:34:52;;;;;;;9.00;8.30;;;;;;;14.00;91.92;98511.95;436777;1248;138975;-63
2023/05/15 11:44:59;;;;;;;6.90;6.30;;;;;;;15.36;89.66;98495.13;437236;1251;139515;-63
2023/05/15 11:55:08;;;;;;;4.30;3.80;;;;;;;16.00;85.51;98488.00;436795;1251;138789;-65
2023/05/15 12:05:13;;;;;;;3.80;3.50;;;;;;;15.79;83.52;98485.85;437570;1253;140349;-63
2023/05/15 12:15:19;;;;;;;4.90;3.60;;;;;;;15.74;82.14;98476.35;437146;1251;139665;-64
2023/05/15 12:25:25;;;;;;;4.00;3.80;;;;;;;15.61;81.74;98460.37;437063;1250;139588;-65
2023/05/15 12:35:33;;;;;;;4.10;3.90;;;;;;;15.96;81.78;98450.29;436911;1250;139011;-64
2023/05/15 12:45:41;;;;;;;3.50;3.20;;;;;;;15.99;80.48;98451.39;437590;1251;139927;-63
2023/05/15 12:55:48;;;;;;;4.00;3.70;;;;;;;16.07;80.46;98441.79;437215;1252;138629;-64
2023/05/15 13:05:54;;;;;;;4.30;3.90;;;;;;;16.50;79.33;98432.97;437603;1251;140228;-64
2023/05/15 13:16:00;;;;;;;4.90;4.40;;;;;;;15.84;78.94;98432.30;437207;1248;139043;-65
2023/05/15 13:26:05;;;;;;;5.60;3.90;;;;;;;15.14;80.25;98426.02;437290;1250;138681;-63
2023/05/15 13:36:13;;;;;;;5.20;4.80;;;;;;;14.83;81.78;98422.97;437573;1248;138424;-65
2023/05/15 13:46:18;;;;;;;4.00;3.30;;;;;;;14.93;82.92;98430.20;437934;1251;139616;-64
2023/05/15 13:56:24;;;;;;;2.00;1.80;;;;;;;16.20;81.83;98427.30;437685;1253;140309;-64
2023/05/15 14:06:31;;;;;;;1.90;1.70;;;;;;;16.67;78.11;98427.64;437491;1253;139602;-65
2023/05/15 14:16:39;;;;;;;2.10;1.90;;;;;;;17.09;76.30;98428.73;437255;1253;139574;-65
2023/05/15 14:26:46;;;;;;;2.00;1.90;;;;;;;17.39;74.88;98423.39;437588;1252;139197;-65
2023/05/15 14:36:52;;;;;;;3.00;2.10;;;;;;;17.33;73.52;98428.09;436776;1250;138600;-64
2023/05/15 14:47:12;;;;;;;4.20;2.50;;;;;;;17.17;72.46;98421.20;436662;1251;139787;-63
2023/05/15 14:57:19;;;;;;;1.80;1.70;;;;;;;17.31;71.66;98424.80;436601;1251;138857;-64
2023/05/15 15:07:29;;;;;;;7.00;2.50;;;;;;;17.46;71.43;98418.33;437161;1251;139560;-64
2023/05/15 15:17:34;;;;;;;3.00;2.70;;;;;;;17.46;70.40;98417.00;436903;1251;139055;-66
2023/05/15 15:27:40;;;;;;;4.70;2.80;;;;;;;17.17;69.92;98414.16;436350;1251;139024;-64
2023/05/15 15:37:46;;;;;;;2.50;2.30;;;;;;;16.73;69.93;98407.23;436776;1251;139083;-64
2023/05/15 15:47:51;;;;;;;3.10;2.90;;;;;;;16.43;70.39;98400.35;453267;1250;139200;-64
2023/05/15 15:57:57;;;;;;;5.20;3.80;;;;;;;16.10;71.07;98387.42;442246;1252;139712;-64
2023/05/15 16:08:03;;;;;;;7.70;6.80;;;;;;;15.70;72.52;98388.54;436813;1251;139521;-63
2023/05/15 16:18:09;;;;;;;7.30;4.70;;;;;;;15.53;73.84;98404.64;437073;1248;140623;-65
2023/05/15 16:28:15;;;;;;;4.30;4.00;;;;;;;15.44;74.23;98408.87;437405;1253;139613;-65
2023/05/15 16:38:21;;;;;;;4.20;3.80;;;;;;;15.04;75.58;98416.23;437511;1252;139199;-65
2023/05/15 16:48:27;;;;;;;4.40;4.00;;;;;;;14.84;76.46;98422.64;437222;1251;139540;-65
2023/05/15 16:58:33;;;;;;;5.50;5.00;;;;;;;14.71;76.95;98420.77;436944;1252;140167;-64
2023/05/15 17:08:41;;;;;;;7.60;4.20;;;;;;;15.00;77.85;98434.45;437290;1253;139273;-64
2023/05/15 17:18:47;;;;;;;3.20;2.90;;;;;;;15.09;77.17;98443.04;436968;1248;139931;-64
2023/05/15 17:28:52;;;;;;;2.60;2.20;;;;;;;15.04;75.67;98454.21;437114;1252;139298;-64
2023/05/15 17:38:58;;;;;;;2.00;1.70;;;;;;;14.91;74.31;98462.00;437832;1253;139632;-63
2023/05/15 17:49:04;;;;;;;3.10;2.70;;;;;;;14.33;74.70;98475.04;436953;1252;139916;-64
2023/05/15 17:59:10;;;;;;;3.00;2.80;;;;;;;13.95;75.60;98477.60;436921;1252;140335;-65
2023/05/15 18:09:16;;;;;;;3.40;3.10;;;;;;;13.66;76.26;98482.41;436865;1253;139310;-64
2023/05/15 18:19:22;;;;;;;4.20;3.10;;;;;;;13.32;76.88;98483.59;437244;1248;139377;-65
2023/05/15 18:29:29;;;;;;;4.80;2.70;;;;;;;13.08;77.48;98486.36;437186;1253;140008;-64
2023/05/15 18:39:38;;;;;;;5.60;2.90;;;;;;;13.01;78.10;98496.41;437190;1253;140027;-64
2023/05/15 18:49:44;;;;;;;5.90;3.00;;;;;;;12.95;78.41;98504.77;437916;1251;138734;-67
2023/05/15 18:59:50;;;;;;;3.20;2.90;;;;;;;12.75;78.34;98516.38;437285;1251;139687;-65
2023/05/15 19:09:58;;;;;;;6.80;5.70;;;;;;;12.43;79.60;98525.86;437246;1251;141201;-65
2023/05/15 19:20:05;;;;;;;6.50;5.60;;;;;;;12.14;81.82;98542.77;437029;1253;154066;-64
2023/05/15 19:30:12;;;;;;;7.30;6.40;;;;;;;12.01;83.25;98555.80;437268;1253;140446;-63
2023/05/15 19:40:18;;;;;;;5.70;4.00;;;;;;;11.83;83.77;98558.04;437173;1253;139094;-66
2023/05/15 19:50:24;;;;;;;4.80;4.30;;;;;;;11.60;84.71;98564.85;437432;1253;139717;-66
2023/05/15 20:00:31;;;;;;;4.10;3.70;;;;;;;11.66;85.68;98576.64;437116;1253;140795;-65
2023/05/15 20:10:37;;;;;;;5.80;3.70;;;;;;;11.77;85.89;98583.55;437071;1248;140414;-65
2023/05/15 20:20:42;;;;;;;4.80;3.30;;;;;;;11.81;86.02;98577.68;436764;1253;138951;-62
2023/05/15 20:30:48;;;;;;;3.70;3.40;;;;;;;11.89;86.04;98575.90;437017;1253;140095;-62
2023/05/15 20:40:55;;;;;;;3.40;3.10;;;;;;;11.95;85.49;98579.80;437100;1253;139507;-63
2023/05/15 20:51:01;;;;;;;3.20;3.00;;;;;;;11.75;85.04;98580.92;436900;1253;139360;-63
2023/05/15 21:01:07;;;;;;;3.30;3.00;;;;;;;11.38;85.01;98587.20;437047;1253;138448;-62
2023/05/15 21:11:13;;;;;;;4.30;3.90;;;;;;;11.17;85.50;98599.63;436905;1253;140762;-64
2023/05/15 21:21:18;;;;;;;4.90;4.50;;;;;;;11.08;86.28;98604.23;436838;1253;139370;-63
2023/05/15 21:31:25;;;;;;;4.90;4.50;;;;;;;10.98;86.91;98609.54;436884;1251;139218;-62
2023/05/15 21:41:31;;;;;;;4.80;4.40;;;;;;;11.06;87.46;98609.05;436975;1251;140051;-63
2023/05/15 21:51:36;;;;;;;5.80;5.30;;;;;;;11.11;87.77;98608.85;436744;1253;139448;-63
2023/05/15 22:01:42;;;;;;;8.50;6.80;;;;;;;11.13;88.11;98613.62;436848;1253;139838;-63
2023/05/15 22:11:48;;;;;;;7.10;6.50;;;;;;;11.18;88.31;98616.46;437240;1252;140286;-63
2023/05/15 22:21:54;;;;;;;7.80;6.90;;;;;;;11.17;88.28;98622.70;436343;1252;140429;-64
2023/05/15 22:32:00;;;;;;;9.20;7.20;;;;;;;11.23;88.61;98630.15;436833;1253;138439;-63
2023/05/15 22:42:07;;;;;;;7.30;6.60;;;;;;;11.17;88.99;98638.48;436990;1252;138698;-63
2023/05/15 22:52:12;;;;;;;6.90;6.30;;;;;;;11.14;89.49;98644.82;437073;1253;140262;-63
2023/05/15 23:02:18;;;;;;;8.10;7.40;;;;;;;11.07;90.28;98647.69;436923;1249;139184;-63
2023/05/15 23:12:24;;;;;;;7.40;6.20;;;;;;;11.01;92.41;98651.89;436939;1251;139208;-63
2023/05/15 23:22:30;;;;;;;8.30;7.50;;;;;;;11.02;92.70;98650.02;436777;1251;140902;-64
2023/05/15 23:32:36;;;;;;;7.70;7.00;;;;;;;10.97;92.52;98651.61;437257;1253;140757;-63
2023/05/15 23:42:41;;;;;;;7.40;6.80;;;;;;;10.57;92.21;98662.98;437376;1253;139251;-63
2023/05/15 23:52:47;;;;;;;7.30;6.60;;;;;;;10.20;93.02;98666.34;437156;1251;140232;-63
